createdAt,value
2022-09-01T00:00:01.357Z,63.48
2022-09-01T00:02:29.229Z,63.28
2022-09-01T00:04:58.355Z,63.50
2022-09-01T00:07:29.935Z,64.13
2022-09-01T00:09:56.542Z,63.47
2022-09-01T00:12:25.630Z,64.09
2022-09-01T00:14:52.695Z,63.75
2022-09-01T00:17:19.259Z,64.08
2022-09-01T00:19:45.847Z,64.20
2022-09-01T00:22:12.346Z,64.63
2022-09-01T00:24:38.962Z,64.68
2022-09-01T00:27:05.585Z,64.98
2022-09-01T00:29:32.130Z,64.69
2022-09-01T00:31:59.453Z,65.27
2022-09-01T00:34:26.123Z,64.86
2022-09-01T00:36:52.694Z,65.26
2022-09-01T00:39:19.238Z,65.19
2022-09-01T00:41:47.247Z,65.66
2022-09-01T00:44:18.915Z,65.21
2022-09-01T00:46:54.905Z,65.64
2022-09-01T00:49:35.701Z,65.38
2022-09-01T00:52:25.967Z,65.50
2022-09-01T00:55:00.078Z,65.81
2022-09-01T00:57:27.317Z,65.52
2022-09-01T01:00:00.646Z,65.59
2022-09-01T01:02:28.111Z,65.42
2022-09-01T01:04:56.071Z,65.36
2022-09-01T01:07:23.193Z,65.61
2022-09-01T01:09:51.117Z,65.63
2022-09-01T01:12:18.620Z,65.38
2022-09-01T01:14:50.306Z,65.39
2022-09-01T01:17:21.573Z,65.44
2022-09-01T01:20:14.341Z,65.66
2022-09-01T01:23:03.250Z,65.60
2022-09-01T01:25:34.745Z,65.51
2022-09-01T01:28:07.827Z,65.58
2022-09-01T01:30:36.943Z,65.48
2022-09-01T01:33:05.451Z,66.04
2022-09-01T01:35:33.676Z,65.29
2022-09-01T01:38:02.193Z,65.74
2022-09-01T01:40:29.677Z,65.66
2022-09-01T01:42:57.231Z,65.87
2022-09-01T01:45:25.282Z,66.00
2022-09-01T01:47:53.594Z,66.14
2022-09-01T01:50:34.552Z,65.93
2022-09-01T01:53:04.300Z,66.08
2022-09-01T01:55:39.306Z,66.33
2022-09-01T01:58:12.067Z,66.51
2022-09-01T02:00:39.392Z,66.63
2022-09-01T02:03:07.495Z,66.60
2022-09-01T02:05:36.727Z,66.38
2022-09-01T02:08:06.983Z,66.12
2022-09-01T02:10:36.815Z,66.86
2022-09-01T02:13:07.349Z,66.72
2022-09-01T02:15:44.514Z,66.87
2022-09-01T02:18:24.669Z,67.13
2022-09-01T02:20:52.749Z,66.78
2022-09-01T02:23:23.494Z,66.73
2022-09-01T02:26:14.585Z,67.49
2022-09-01T02:28:42.593Z,66.62
2022-09-01T02:31:11.443Z,67.06
2022-09-01T02:33:40.176Z,67.19
2022-09-01T02:36:13.267Z,67.47
2022-09-01T02:38:45.862Z,67.14
2022-09-01T02:41:14.356Z,67.79
2022-09-01T02:43:43.373Z,67.36
2022-09-01T02:46:10.216Z,67.67
2022-09-01T02:48:41.257Z,67.79
2022-09-01T02:51:11.302Z,67.50
2022-09-01T02:53:39.386Z,67.45
2022-09-01T02:56:13.723Z,67.27
2022-09-01T02:58:46.144Z,67.56
2022-09-01T03:01:24.820Z,67.99
2022-09-01T03:03:55.001Z,67.58
2022-09-01T03:06:24.223Z,68.03
2022-09-01T03:08:53.849Z,68.17
2022-09-01T03:11:21.202Z,67.81
2022-09-01T03:13:47.864Z,67.88
2022-09-01T03:16:14.730Z,67.77
2022-09-01T03:18:42.852Z,67.79
2022-09-01T03:21:15.031Z,67.79
2022-09-01T03:23:42.381Z,68.02
2022-09-01T03:26:09.246Z,67.82
2022-09-01T03:28:37.677Z,67.90
2022-09-01T03:31:04.767Z,68.13
2022-09-01T03:33:32.657Z,67.92
2022-09-01T03:35:59.310Z,68.09
2022-09-01T03:38:26.566Z,67.79
2022-09-01T03:41:02.195Z,67.87
2022-09-01T03:43:35.457Z,68.38
2022-09-01T03:46:03.565Z,68.28
2022-09-01T03:48:31.804Z,68.55
2022-09-01T03:51:03.243Z,68.99
2022-09-01T03:53:32.468Z,68.64
2022-09-01T03:56:00.081Z,68.53
2022-09-01T03:58:27.396Z,68.47
2022-09-01T04:00:58.383Z,68.95
2022-09-01T04:03:31.162Z,68.87
2022-09-01T04:05:59.974Z,69.06
2022-09-01T04:08:32.704Z,68.96
2022-09-01T04:11:10.798Z,69.00
2022-09-01T04:13:41.326Z,69.06
2022-09-01T04:16:36.729Z,69.09
2022-09-01T04:19:15.837Z,68.80
2022-09-01T04:21:46.952Z,69.51
2022-09-01T04:24:15.415Z,69.28
2022-09-01T04:26:43.101Z,69.52
2022-09-01T04:29:11.741Z,69.74
2022-09-01T04:31:40.622Z,69.09
2022-09-01T04:34:13.817Z,69.50
2022-09-01T04:36:43.725Z,69.53
2022-09-01T04:39:12.383Z,70.16
2022-09-01T04:41:42.568Z,69.92
2022-09-01T04:44:09.761Z,69.79
2022-09-01T04:46:46.445Z,69.92
2022-09-01T04:49:19.467Z,69.83
2022-09-01T04:51:53.262Z,70.26
2022-09-01T04:54:23.790Z,70.87
2022-09-01T04:56:56.276Z,70.37
2022-09-01T04:59:27.057Z,70.29
2022-09-01T05:01:55.602Z,70.34
2022-09-01T05:04:24.913Z,70.32
2022-09-01T05:07:00.824Z,70.97
2022-09-01T05:09:37.006Z,70.88
2022-09-01T05:12:15.928Z,71.03
2022-09-01T05:14:59.252Z,70.50
2022-09-01T05:17:28.629Z,71.18
2022-09-01T05:19:56.811Z,70.74
2022-09-01T05:22:23.898Z,71.03
2022-09-01T05:24:51.565Z,71.22
2022-09-01T05:27:22.897Z,71.32
2022-09-01T05:29:50.436Z,71.05
2022-09-01T05:32:17.153Z,71.64
2022-09-01T05:34:46.155Z,71.08
2022-09-01T05:37:16.043Z,71.46
2022-09-01T05:39:42.580Z,71.90
2022-09-01T05:42:09.125Z,71.50
2022-09-01T05:44:36.578Z,71.48
2022-09-01T05:47:05.415Z,71.52
2022-09-01T05:49:33.252Z,71.67
2022-09-01T05:52:00.492Z,71.52
2022-09-01T05:54:27.936Z,71.45
2022-09-01T05:57:08.141Z,71.44
2022-09-01T05:59:46.122Z,71.38
2022-09-01T06:02:12.932Z,71.28
2022-09-01T06:04:44.207Z,71.26
2022-09-01T06:07:16.542Z,71.50
2022-09-01T06:09:48.300Z,71.33
2022-09-01T06:12:23.850Z,71.32
2022-09-01T06:14:55.951Z,71.70
2022-09-01T06:17:25.565Z,71.16
2022-09-01T06:19:56.646Z,71.54
2022-09-01T06:22:25.656Z,71.28
2022-09-01T06:24:57.970Z,71.45
2022-09-01T06:27:27.969Z,71.24
2022-09-01T06:29:54.830Z,70.91
2022-09-01T06:32:21.515Z,71.09
2022-09-01T06:34:50.526Z,70.86
2022-09-01T06:37:22.642Z,71.04
2022-09-01T06:39:50.719Z,70.63
2022-09-01T06:42:17.706Z,70.47
2022-09-01T06:44:45.927Z,70.49
2022-09-01T06:47:12.653Z,70.09
2022-09-01T06:49:41.054Z,70.39
2022-09-01T06:52:07.833Z,69.77
2022-09-01T06:54:35.580Z,70.03
2022-09-01T06:58:03.470Z,70.37
2022-09-01T06:59:52.426Z,70.14
2022-09-01T07:02:19.953Z,69.78
2022-09-01T07:04:53.493Z,69.23
2022-09-01T07:10:18.630Z,68.98
2022-09-01T07:13:11.948Z,68.90
2022-09-01T07:18:31.234Z,68.16
2022-09-01T07:21:36.666Z,68.15
2022-09-01T07:24:07.566Z,67.54
2022-09-01T07:26:35.742Z,67.26
2022-09-01T07:29:06.349Z,67.63
2022-09-01T07:34:46.124Z,67.27
2022-09-01T07:38:47.591Z,67.39
2022-09-01T07:45:47.211Z,65.73
2022-09-01T07:53:53.221Z,65.11
2022-09-01T07:56:22.412Z,64.63
2022-09-01T07:58:50.495Z,64.32
2022-09-01T08:01:23.286Z,64.02
2022-09-01T08:03:58.694Z,63.76
2022-09-01T08:06:27.908Z,63.57
2022-09-01T08:08:57.495Z,63.64
2022-09-01T08:11:58.240Z,63.70
2022-09-01T08:14:18.127Z,62.90
2022-09-01T08:16:52.497Z,62.58
2022-09-01T08:19:19.828Z,62.45
2022-09-01T08:21:46.404Z,62.46
2022-09-01T08:24:14.255Z,61.74
2022-09-01T08:26:40.777Z,61.58
2022-09-01T08:29:07.359Z,60.81
2022-09-01T08:31:36.135Z,61.25
2022-09-01T08:34:05.510Z,61.02
2022-09-01T08:36:33.046Z,60.51
2022-09-01T08:38:59.882Z,60.06
2022-09-01T08:41:39.863Z,59.79
2022-09-01T08:44:14.298Z,59.02
2022-09-01T08:46:43.154Z,59.20
2022-09-01T08:49:25.401Z,59.25
2022-09-01T08:52:14.045Z,57.92
2022-09-01T08:54:46.918Z,57.63
2022-09-01T08:57:19.919Z,57.48
2022-09-01T08:59:49.055Z,57.10
2022-09-01T09:02:32.540Z,56.72
2022-09-01T09:05:43.684Z,55.80
2022-09-01T09:08:33.406Z,54.72
2022-09-01T09:11:09.314Z,55.16
2022-09-01T09:14:06.936Z,53.99
2022-09-01T09:16:40.990Z,54.13
2022-09-01T09:19:17.504Z,54.80
2022-09-01T09:21:47.494Z,55.17
2022-09-01T09:24:47.160Z,55.69
2022-09-01T09:27:29.930Z,55.27
2022-09-01T09:30:07.591Z,55.49
2022-09-01T09:33:15.957Z,55.09
2022-09-01T09:35:43.626Z,55.54
2022-09-01T09:38:21.066Z,56.11
2022-09-01T09:43:58.721Z,56.78
2022-09-01T09:46:31.917Z,57.36
2022-09-01T09:49:07.390Z,58.05
2022-09-01T09:51:34.417Z,58.60
2022-09-01T09:54:19.765Z,59.62
2022-09-01T09:56:47.854Z,59.68
2022-09-01T09:59:56.629Z,60.65
2022-09-01T10:02:27.905Z,61.41
2022-09-01T10:04:56.064Z,61.65
2022-09-01T10:07:28.802Z,61.30
2022-09-01T10:09:58.589Z,60.67
2022-09-01T10:12:25.440Z,60.60
2022-09-01T10:14:56.920Z,60.58
2022-09-01T10:17:35.929Z,60.50
2022-09-01T10:20:08.425Z,61.05
2022-09-01T10:22:39.606Z,60.25
2022-09-01T10:25:10.478Z,60.38
2022-09-01T10:27:41.793Z,60.01
2022-09-01T10:30:20.505Z,60.08
2022-09-01T10:32:55.755Z,59.79
2022-09-01T10:35:29.982Z,59.69
2022-09-01T10:37:59.531Z,59.34
2022-09-01T10:40:31.132Z,59.16
2022-09-01T10:43:00.972Z,58.92
2022-09-01T10:45:41.151Z,58.14
2022-09-01T10:48:30.856Z,57.78
2022-09-01T10:51:18.492Z,57.55
2022-09-01T10:54:06.783Z,57.18
2022-09-01T10:57:08.967Z,56.87
2022-09-01T10:59:43.285Z,57.08
2022-09-01T11:02:26.986Z,56.36
2022-09-01T11:04:54.962Z,56.00
2022-09-01T11:07:29.837Z,55.40
2022-09-01T11:10:34.709Z,53.95
2022-09-01T11:13:15.686Z,54.58
2022-09-01T11:15:45.028Z,54.45
2022-09-01T11:18:27.508Z,53.11
2022-09-01T11:20:56.260Z,52.41
2022-09-01T11:23:31.039Z,49.11
2022-09-01T11:28:45.386Z,47.60
2022-09-01T11:31:20.558Z,44.34
2022-09-01T11:34:04.477Z,44.73
2022-09-01T11:36:37.026Z,44.85
2022-09-01T11:39:19.054Z,44.94
2022-09-01T11:42:04.947Z,43.32
2022-09-01T11:44:42.886Z,44.49
2022-09-01T11:47:38.095Z,42.64
2022-09-01T11:50:25.401Z,40.95
2022-09-01T11:53:04.993Z,41.11
2022-09-01T11:55:33.818Z,41.57
2022-09-01T11:58:01.107Z,40.81
2022-09-01T12:00:38.226Z,41.33
2022-09-01T12:03:25.854Z,40.62
2022-09-01T12:06:00.406Z,40.51
2022-09-01T12:08:30.631Z,41.23
2022-09-01T12:11:31.990Z,39.32
2022-09-01T12:14:08.922Z,40.10
2022-09-01T12:16:42.518Z,39.98
2022-09-01T12:19:24.635Z,39.58
2022-09-01T12:22:04.677Z,39.90
2022-09-01T12:24:37.038Z,38.87
2022-09-01T12:27:04.902Z,38.69
2022-09-01T12:29:33.119Z,37.84
2022-09-01T12:32:01.356Z,38.13
2022-09-01T12:34:34.067Z,37.92
2022-09-01T12:37:10.461Z,37.19
2022-09-01T12:39:38.388Z,37.59
2022-09-01T12:42:28.533Z,36.45
2022-09-01T12:44:58.539Z,36.67
2022-09-01T12:47:51.747Z,36.33
2022-09-01T12:50:18.172Z,37.08
2022-09-01T12:52:58.716Z,35.84
2022-09-01T12:55:51.542Z,35.50
2022-09-01T12:58:25.741Z,35.49
2022-09-01T13:01:02.161Z,36.72
2022-09-01T13:03:29.679Z,35.75
2022-09-01T13:06:02.138Z,36.28
2022-09-01T13:08:34.181Z,36.03
2022-09-01T13:11:13.672Z,35.79
2022-09-01T13:13:40.211Z,36.02
2022-09-01T13:16:12.948Z,37.02
2022-09-01T13:21:28.804Z,37.86
2022-09-01T13:23:55.669Z,38.06
2022-09-01T13:26:22.505Z,38.22
2022-09-01T13:28:49.011Z,38.21
2022-09-01T13:31:31.673Z,38.43
2022-09-01T13:34:20.648Z,37.66
2022-09-01T13:36:51.241Z,37.44
2022-09-01T13:39:19.223Z,37.53
2022-09-01T13:41:47.808Z,37.98
2022-09-01T13:44:14.626Z,37.78
2022-09-01T13:50:05.026Z,37.97
2022-09-01T13:52:14.754Z,38.80
2022-09-01T13:54:41.985Z,38.72
2022-09-01T13:57:08.483Z,38.33
2022-09-01T13:59:34.965Z,38.83
2022-09-01T14:02:01.679Z,38.87
2022-09-01T14:04:28.546Z,38.71
2022-09-01T14:06:55.278Z,38.64
2022-09-01T14:09:22.533Z,39.70
2022-09-01T14:11:49.068Z,38.80
2022-09-01T14:14:15.654Z,39.30
2022-09-01T14:16:42.294Z,39.38
2022-09-01T14:19:11.050Z,39.65
2022-09-01T14:21:38.810Z,39.29
2022-09-01T14:26:37.419Z,41.02
2022-09-01T14:29:03.937Z,41.38
2022-09-01T14:31:31.939Z,42.18
2022-09-01T14:33:58.490Z,43.59
2022-09-01T14:36:26.831Z,44.19
2022-09-01T14:38:54.241Z,44.48
2022-09-01T14:41:26.936Z,46.65
2022-09-01T14:44:03.257Z,48.32
2022-09-01T14:46:34.389Z,49.34
2022-09-01T14:49:02.612Z,50.00
2022-09-01T14:54:16.922Z,53.04
2022-09-01T14:57:28.205Z,54.13
2022-09-01T14:59:29.960Z,54.56
2022-09-01T15:01:56.946Z,53.62
2022-09-01T15:04:23.617Z,53.05
2022-09-01T15:06:51.180Z,54.13
2022-09-01T15:09:19.269Z,55.24
2022-09-01T15:11:46.514Z,54.38
2022-09-01T15:14:13.516Z,53.79
2022-09-01T15:16:41.648Z,53.54
2022-09-01T15:19:13.487Z,53.34
2022-09-01T15:21:43.760Z,54.08
2022-09-01T15:24:11.299Z,53.09
2022-09-01T15:26:40.711Z,53.22
2022-09-01T15:29:13.196Z,53.05
2022-09-01T15:31:40.145Z,53.30
2022-09-01T15:34:07.150Z,52.07
2022-09-01T15:36:37.092Z,51.91
2022-09-01T15:39:03.796Z,51.06
2022-09-01T15:41:33.462Z,51.19
2022-09-01T15:44:02.234Z,49.97
2022-09-01T15:46:32.775Z,49.51
2022-09-01T15:49:05.049Z,49.56
2022-09-01T15:51:37.442Z,49.70
2022-09-01T15:54:07.702Z,49.51
2022-09-01T15:56:34.565Z,49.44
2022-09-01T15:59:02.288Z,48.33
2022-09-01T16:01:32.140Z,48.33
2022-09-01T16:03:59.117Z,49.07
2022-09-01T16:06:26.452Z,48.00
2022-09-01T16:08:54.323Z,47.25
2022-09-01T16:11:23.576Z,47.14
2022-09-01T16:13:54.021Z,46.41
2022-09-01T16:16:59.944Z,44.69
2022-09-01T16:19:56.497Z,45.52
2022-09-01T16:22:28.465Z,45.51
2022-09-01T16:25:00.773Z,45.18
2022-09-01T16:27:35.963Z,45.17
2022-09-01T16:30:08.114Z,44.41
2022-09-01T16:32:36.078Z,44.22
2022-09-01T16:35:04.085Z,44.12
2022-09-01T16:37:55.085Z,43.32
2022-09-01T16:40:44.822Z,44.25
2022-09-01T16:43:17.039Z,44.54
2022-09-01T16:45:55.709Z,44.23
2022-09-01T16:48:47.186Z,43.83
2022-09-01T16:51:38.079Z,44.75
2022-09-01T16:54:11.231Z,44.47
2022-09-01T16:57:05.322Z,43.72
2022-09-01T17:00:00.644Z,44.04
2022-09-01T17:02:40.568Z,44.98
2022-09-01T17:05:07.855Z,45.04
2022-09-01T17:07:44.394Z,44.74
2022-09-01T17:10:22.484Z,44.62
2022-09-01T17:12:56.087Z,44.46
2022-09-01T17:15:38.110Z,44.62
2022-09-01T17:18:08.008Z,45.38
2022-09-01T17:20:36.893Z,45.02
2022-09-01T17:23:08.760Z,45.31
2022-09-01T17:26:07.463Z,45.32
2022-09-01T17:28:52.040Z,45.61
2022-09-01T17:31:41.799Z,46.30
2022-09-01T17:34:14.277Z,46.67
2022-09-01T17:36:53.095Z,46.41
2022-09-01T17:39:49.220Z,46.59
2022-09-01T17:42:36.547Z,46.02
2022-09-01T17:45:30.289Z,46.01
2022-09-01T17:48:18.244Z,47.12
2022-09-01T17:50:55.851Z,46.56
2022-09-01T17:53:33.804Z,46.61
2022-09-01T17:56:09.285Z,46.46
2022-09-01T17:58:55.620Z,46.95
2022-09-01T18:01:40.642Z,46.71
2022-09-01T18:04:26.056Z,46.61
2022-09-01T18:07:14.516Z,47.77
2022-09-01T18:09:55.501Z,47.83
2022-09-01T18:12:28.252Z,47.60
2022-09-01T18:15:04.589Z,47.76
2022-09-01T18:18:00.206Z,48.73
2022-09-01T18:20:38.442Z,48.32
2022-09-01T18:23:08.854Z,48.72
2022-09-01T18:26:17.597Z,49.34
2022-09-01T18:28:44.618Z,49.43
2022-09-01T18:31:44.729Z,49.35
2022-09-01T18:34:19.266Z,49.93
2022-09-01T18:36:59.055Z,49.91
2022-09-01T18:39:50.110Z,50.31
2022-09-01T18:42:19.495Z,50.77
2022-09-01T18:45:05.395Z,50.82
2022-09-01T18:47:55.365Z,50.47
2022-09-01T18:50:21.953Z,50.77
2022-09-01T18:53:08.565Z,51.13
2022-09-01T18:56:01.386Z,51.47
2022-09-01T18:58:51.829Z,51.55
2022-09-01T19:01:44.646Z,51.88
2022-09-01T19:04:39.427Z,52.01
2022-09-01T19:07:28.166Z,52.32
2022-09-01T19:10:27.185Z,52.42
2022-09-01T19:13:13.671Z,52.94
2022-09-01T19:15:58.667Z,53.04
2022-09-01T19:18:38.389Z,53.05
2022-09-01T19:21:19.070Z,53.52
2022-09-01T19:23:50.289Z,53.76
2022-09-01T19:26:24.398Z,53.59
2022-09-01T19:28:53.258Z,53.78
2022-09-01T19:31:34.356Z,54.05
2022-09-01T19:34:26.902Z,54.16
2022-09-01T19:36:56.981Z,54.54
2022-09-01T19:39:28.156Z,54.93
2022-09-01T19:42:38.193Z,54.86
2022-09-01T19:45:14.049Z,55.01
2022-09-01T19:48:10.314Z,55.09
2022-09-01T19:50:42.689Z,55.12
2022-09-01T19:53:47.119Z,55.24
2022-09-01T19:56:19.225Z,55.56
2022-09-01T19:58:53.135Z,55.67
2022-09-01T20:01:39.654Z,56.09
2022-09-01T20:04:45.779Z,56.45
2022-09-01T20:07:32.926Z,56.79
2022-09-01T20:10:55.267Z,56.72
2022-09-01T20:13:56.903Z,57.10
2022-09-01T20:16:45.586Z,57.45
2022-09-01T20:19:18.360Z,57.28
2022-09-01T20:21:47.371Z,57.42
2022-09-01T20:24:19.785Z,57.77
2022-09-01T20:27:00.198Z,57.79
2022-09-01T20:30:14.786Z,58.23
2022-09-01T20:32:53.973Z,57.87
2022-09-01T20:35:28.535Z,57.87
2022-09-01T20:38:42.032Z,57.87
2022-09-01T20:41:18.665Z,57.80
2022-09-01T20:43:49.361Z,58.04
2022-09-01T20:46:20.504Z,58.09
2022-09-01T20:48:47.839Z,58.54
2022-09-01T20:51:46.655Z,58.72
2022-09-01T20:54:48.639Z,58.49
2022-09-01T20:57:30.697Z,58.75
2022-09-01T21:00:19.105Z,58.67
2022-09-01T21:03:04.436Z,59.45
2022-09-01T21:05:52.473Z,59.15
2022-09-01T21:08:40.114Z,59.25
2022-09-01T21:11:58.511Z,59.83
2022-09-01T21:14:36.942Z,59.98
2022-09-01T21:17:09.500Z,59.99
2022-09-01T21:19:48.398Z,60.25
2022-09-01T21:22:21.762Z,60.29
2022-09-01T21:24:48.999Z,60.41
2022-09-01T21:27:23.007Z,61.15
2022-09-01T21:30:02.798Z,61.16
2022-09-01T21:32:31.336Z,61.48
2022-09-01T21:34:59.014Z,61.81
2022-09-01T21:37:27.389Z,61.90
2022-09-01T21:39:55.279Z,62.68
2022-09-01T21:42:35.915Z,63.32
2022-09-01T21:45:05.969Z,63.13
2022-09-01T21:47:34.016Z,63.90
2022-09-01T21:50:00.890Z,64.58
2022-09-01T21:52:27.957Z,65.51
2022-09-01T21:54:54.571Z,66.15
2022-09-01T21:57:23.109Z,66.86
2022-09-01T21:59:51.387Z,68.09
2022-09-01T22:02:20.043Z,68.86
2022-09-01T22:04:47.354Z,70.63
2022-09-01T22:07:19.020Z,71.74
2022-09-01T22:09:46.575Z,72.41
2022-09-01T22:12:14.048Z,73.43
2022-09-01T22:14:40.656Z,73.77
2022-09-01T22:17:07.828Z,74.69
2022-09-01T22:19:35.915Z,75.00
2022-09-01T22:22:03.287Z,75.88
2022-09-01T22:24:30.104Z,75.61
2022-09-01T22:26:56.622Z,76.44
2022-09-01T22:29:23.281Z,77.12
2022-09-01T22:31:49.785Z,77.70
2022-09-01T22:34:16.396Z,77.46
2022-09-01T22:36:47.113Z,78.49
2022-09-01T22:39:15.609Z,77.58
2022-09-01T22:41:42.779Z,77.92
2022-09-01T22:44:11.125Z,78.19
2022-09-01T22:46:39.038Z,77.90
2022-09-01T22:49:06.596Z,78.53
2022-09-01T22:51:34.043Z,77.95
2022-09-01T22:54:00.629Z,78.72
2022-09-01T22:56:30.452Z,78.69
2022-09-01T22:59:06.851Z,79.13
2022-09-01T23:01:35.082Z,82.89
2022-09-01T23:04:04.598Z,79.28
2022-09-01T23:06:32.976Z,79.33
2022-09-01T23:09:01.784Z,80.14
2022-09-01T23:11:28.825Z,79.32
2022-09-01T23:13:55.857Z,79.40
2022-09-01T23:16:24.495Z,79.99
2022-09-01T23:18:52.097Z,80.28
2022-09-01T23:21:24.578Z,81.50
2022-09-01T23:23:58.602Z,80.49
2022-09-01T23:26:26.550Z,80.35
2022-09-01T23:28:53.168Z,80.69
2022-09-01T23:31:27.182Z,81.64
2022-09-01T23:33:54.420Z,80.30
2022-09-01T23:36:25.433Z,81.16
2022-09-01T23:38:52.556Z,80.36
2022-09-01T23:41:23.270Z,80.91
2022-09-01T23:43:51.370Z,81.25
2022-09-01T23:46:24.217Z,81.97
2022-09-01T23:48:51.323Z,80.52
2022-09-01T23:51:18.314Z,80.81
2022-09-01T23:53:46.984Z,81.31
2022-09-01T23:56:20.715Z,82.75
2022-09-01T23:58:47.427Z,81.16
